Minaki, Canada
Current Conditions -  °F | °C
As of 10:47 AM on Friday 21 Nov 2014 (Local Time) from CYQK Reporting Station
Light Snow Light Snow  
Wind Chill:   Ceiling: 1500
Heat Index: 18°   Visibility: 15mi
Dew Point: 12°   Wind: 21mph
Humidity: 79%   Direction: 190°S
Pressure: 29.69"   Gusts: 28mph
Location:  49.99°N, 94.67°W
Report Text: CYQK 211647Z 19018G24KT 15SM -SN BKN015 OVC100 M08/M11 A2969 RMK SC7AC1 SLP087
Loading
Personal Weather Stations






























Interactive Weather Map New forecast layout! Learn more

10-Day Weather Forecast

Advertisements
Track Severe Weather on mobile